createdAt,value
2022-12-16T00:01:53.420Z,175.37
2022-12-16T00:04:23.254Z,176.87
2022-12-16T00:06:51.762Z,176.90
2022-12-16T00:09:21.505Z,177.77
2022-12-16T00:11:49.812Z,164.33
2022-12-16T00:14:18.228Z,166.97
2022-12-16T00:16:46.553Z,154.27
2022-12-16T00:19:15.273Z,146.13
2022-12-16T00:21:43.532Z,127.80
2022-12-16T00:24:11.825Z,120.37
2022-12-16T00:26:41.515Z,116.83
2022-12-16T00:29:11.221Z,115.40
2022-12-16T00:31:39.690Z,104.87
2022-12-16T00:34:08.226Z,111.00
2022-12-16T00:36:36.553Z,86.20
2022-12-16T00:39:04.948Z,99.27
2022-12-16T00:41:33.291Z,94.53
2022-12-16T00:44:04.676Z,80.07
2022-12-16T00:46:33.180Z,69.23
2022-12-16T00:49:01.473Z,68.70
2022-12-16T00:51:29.787Z,50.77
2022-12-16T00:53:59.888Z,47.93
2022-12-16T00:56:28.228Z,42.80
2022-12-16T00:58:56.555Z,38.13
2022-12-16T01:01:26.270Z,30.83
2022-12-16T01:03:57.592Z,30.23
2022-12-16T01:06:25.939Z,27.33
2022-12-16T01:08:54.180Z,21.87
2022-12-16T01:11:23.332Z,23.20
2022-12-16T01:13:52.693Z,21.03
2022-12-16T01:16:27.132Z,21.77
2022-12-16T01:18:56.452Z,26.57
2022-12-16T01:21:24.692Z,26.90
2022-12-16T01:23:55.066Z,20.97
2022-12-16T01:26:23.605Z,19.73
2022-12-16T01:28:51.974Z,18.97
2022-12-16T01:31:21.720Z,14.07
2022-12-16T01:33:51.833Z,14.70
2022-12-16T01:36:20.400Z,12.97
2022-12-16T01:38:48.654Z,16.10
2022-12-16T01:41:18.135Z,13.57
2022-12-16T01:43:47.156Z,11.40
2022-12-16T01:46:20.831Z,12.53
2022-12-16T01:48:57.706Z,18.67
2022-12-16T01:51:29.766Z,15.83
2022-12-16T01:54:02.919Z,13.80
2022-12-16T01:56:34.064Z,14.43
2022-12-16T01:59:03.450Z,11.97
2022-12-16T02:01:31.892Z,8.10
2022-12-16T02:04:04.700Z,12.60
2022-12-16T02:06:33.710Z,17.10
2022-12-16T02:09:08.404Z,11.07
2022-12-16T02:11:53.513Z,13.07
2022-12-16T02:14:45.710Z,10.27
2022-12-16T02:17:20.754Z,18.23
2022-12-16T02:20:23.618Z,13.20
2022-12-16T02:23:11.239Z,17.60
2022-12-16T02:26:04.567Z,12.60
2022-12-16T02:28:52.825Z,10.23
2022-12-16T02:31:32.914Z,11.63
2022-12-16T02:34:13.468Z,8.00
2022-12-16T02:36:57.917Z,12.50
2022-12-16T02:39:31.265Z,15.90
2022-12-16T02:42:08.306Z,13.00
2022-12-16T02:44:46.819Z,6.17
2022-12-16T02:47:16.559Z,11.67
2022-12-16T02:49:50.168Z,11.07
2022-12-16T02:52:22.189Z,13.10
2022-12-16T02:54:57.040Z,16.97
2022-12-16T02:57:49.018Z,12.63
2022-12-16T03:00:21.123Z,13.30
2022-12-16T03:02:57.050Z,8.70
2022-12-16T03:05:29.238Z,13.27
2022-12-16T03:08:02.545Z,8.07
2022-12-16T03:10:35.532Z,14.00
2022-12-16T03:13:06.228Z,13.43
2022-12-16T03:15:37.165Z,10.43
2022-12-16T03:18:10.863Z,13.43
2022-12-16T03:20:44.787Z,19.53
2022-12-16T03:23:18.399Z,12.77
2022-12-16T03:25:50.542Z,9.87
2022-12-16T03:28:32.812Z,14.80
2022-12-16T03:31:08.973Z,16.03
2022-12-16T03:33:41.137Z,11.83
2022-12-16T03:36:15.856Z,11.77
2022-12-16T03:38:46.442Z,15.30
2022-12-16T03:41:16.505Z,19.37
2022-12-16T03:43:45.665Z,13.20
2022-12-16T03:46:15.906Z,17.40
2022-12-16T03:48:50.548Z,16.40
2022-12-16T03:51:20.100Z,14.30
2022-12-16T03:53:48.527Z,18.33
2022-12-16T03:56:17.009Z,10.73
2022-12-16T03:58:47.115Z,12.03
2022-12-16T04:01:15.648Z,13.50
2022-12-16T04:03:44.266Z,15.80
2022-12-16T04:06:18.561Z,12.57
2022-12-16T04:08:47.639Z,18.10
2022-12-16T04:11:34.537Z,19.20
2022-12-16T04:14:34.721Z,14.20
2022-12-16T04:17:20.841Z,11.50
2022-12-16T04:20:07.473Z,14.43
2022-12-16T04:22:58.436Z,13.67
2022-12-16T04:25:31.132Z,15.57
2022-12-16T04:27:59.780Z,11.43
2022-12-16T04:30:30.067Z,11.30
2022-12-16T04:33:19.949Z,10.97
2022-12-16T04:36:06.416Z,17.30
2022-12-16T04:38:58.697Z,11.70
2022-12-16T04:42:02.895Z,15.20
2022-12-16T04:44:48.583Z,13.57
2022-12-16T04:47:34.528Z,13.90
2022-12-16T04:50:20.275Z,13.20
2022-12-16T04:53:09.550Z,12.93
2022-12-16T04:56:02.135Z,19.43
2022-12-16T04:58:50.022Z,16.77
2022-12-16T05:01:36.254Z,12.23
2022-12-16T05:04:23.315Z,13.67
2022-12-16T05:07:09.023Z,16.53
2022-12-16T05:09:55.281Z,11.33
2022-12-16T05:12:42.140Z,14.50
2022-12-16T05:15:28.302Z,13.43
2022-12-16T05:18:14.204Z,15.27
2022-12-16T05:21:00.247Z,11.00
2022-12-16T05:23:46.253Z,13.43
2022-12-16T05:26:32.294Z,19.00
2022-12-16T05:29:19.205Z,12.47
2022-12-16T05:32:16.451Z,9.63
2022-12-16T05:35:02.432Z,14.67
2022-12-16T05:37:49.262Z,12.70
2022-12-16T05:40:35.324Z,11.53
2022-12-16T05:43:21.273Z,11.50
2022-12-16T05:46:08.443Z,12.47
2022-12-16T05:48:54.412Z,13.63
2022-12-16T05:51:40.192Z,14.90
2022-12-16T05:54:26.270Z,11.10
2022-12-16T05:57:11.991Z,16.40
2022-12-16T05:59:57.845Z,10.97
2022-12-16T06:02:45.068Z,13.03
2022-12-16T06:05:31.064Z,9.77
2022-12-16T06:08:16.630Z,22.33
2022-12-16T06:11:02.116Z,12.53
2022-12-16T06:13:47.600Z,9.83
2022-12-16T06:16:33.340Z,13.60
2022-12-16T06:19:20.535Z,14.60
2022-12-16T06:22:06.419Z,14.60
2022-12-16T06:24:52.039Z,17.50
2022-12-16T06:27:37.662Z,11.23
2022-12-16T06:30:23.950Z,18.23
2022-12-16T06:33:10.133Z,11.70
2022-12-16T06:35:57.645Z,13.03
2022-12-16T06:38:43.245Z,18.90
2022-12-16T06:41:28.966Z,19.10
2022-12-16T06:44:14.703Z,15.47
2022-12-16T06:47:00.269Z,15.67
2022-12-16T06:49:45.791Z,50.57
2022-12-16T06:52:32.610Z,35.77
2022-12-16T06:55:18.423Z,23.83
2022-12-16T06:58:09.602Z,22.77
2022-12-16T07:00:55.611Z,41.40
2022-12-16T07:03:42.100Z,25.30
2022-12-16T07:06:28.455Z,23.70
2022-12-16T07:09:15.331Z,27.77
2022-12-16T07:12:00.903Z,24.03
2022-12-16T07:15:00.973Z,17.23
2022-12-16T07:17:46.803Z,23.47
2022-12-16T07:20:32.638Z,16.23
2022-12-16T07:23:20.005Z,22.57
2022-12-16T07:26:08.437Z,20.00
2022-12-16T07:28:56.883Z,18.40
2022-12-16T07:31:42.557Z,24.27
2022-12-16T07:34:28.491Z,22.90
2022-12-16T07:37:14.051Z,24.07
2022-12-16T07:40:00.149Z,26.23
2022-12-16T07:42:47.744Z,24.17
2022-12-16T07:45:33.955Z,22.97
2022-12-16T07:48:19.631Z,26.13
2022-12-16T07:51:05.310Z,27.33
2022-12-16T07:53:51.199Z,28.80
2022-12-16T07:56:37.461Z,25.00
2022-12-16T07:59:24.732Z,31.43
2022-12-16T08:02:10.998Z,32.13
2022-12-16T08:07:30.780Z,36.57
2022-12-16T08:10:16.488Z,34.50
2022-12-16T08:13:02.941Z,34.83
2022-12-16T08:15:50.012Z,42.20
2022-12-16T08:18:35.616Z,38.63
2022-12-16T08:21:21.360Z,36.33
2022-12-16T08:24:07.233Z,32.37
2022-12-16T08:26:53.066Z,37.92
2022-12-16T08:29:44.597Z,34.80
2022-12-16T08:32:32.502Z,30.63
2022-12-16T08:35:18.891Z,34.10
2022-12-16T08:38:09.012Z,42.83
2022-12-16T08:41:00.874Z,33.70
2022-12-16T08:43:48.787Z,39.97
2022-12-16T08:46:34.882Z,42.17
2022-12-16T08:49:22.210Z,35.23
2022-12-16T08:52:08.428Z,35.57
2022-12-16T08:54:54.689Z,32.77
2022-12-16T08:57:40.908Z,32.67
2022-12-16T09:00:27.951Z,43.43
2022-12-16T09:03:14.462Z,32.90
2022-12-16T09:06:01.913Z,40.03
2022-12-16T09:08:48.816Z,35.10
2022-12-16T09:11:34.750Z,45.60
2022-12-16T09:14:20.488Z,44.53
2022-12-16T09:17:07.169Z,49.53
2022-12-16T09:19:54.077Z,44.27
2022-12-16T09:22:43.463Z,40.40
2022-12-16T09:25:29.230Z,48.30
2022-12-16T09:28:14.926Z,41.10
2022-12-16T09:31:00.764Z,36.40
2022-12-16T09:33:46.379Z,35.17
2022-12-16T09:36:31.972Z,31.63
2022-12-16T09:39:19.121Z,32.73
2022-12-16T09:42:15.701Z,26.20
2022-12-16T09:45:15.411Z,30.10
2022-12-16T09:48:09.206Z,32.83
2022-12-16T09:50:57.789Z,27.30
2022-12-16T09:53:45.938Z,26.77
2022-12-16T09:56:36.093Z,26.37
2022-12-16T09:59:24.844Z,24.90
2022-12-16T10:02:12.023Z,30.30
2022-12-16T10:04:44.602Z,25.33
2022-12-16T10:07:36.053Z,23.13
2022-12-16T10:10:36.132Z,28.07
2022-12-16T10:13:32.150Z,23.30
2022-12-16T10:16:27.801Z,27.17
2022-12-16T10:19:20.325Z,28.70
2022-12-16T10:22:12.648Z,23.63
2022-12-16T10:25:08.849Z,23.23
2022-12-16T10:28:00.083Z,24.83
2022-12-16T10:30:48.845Z,25.03
2022-12-16T10:33:36.672Z,19.33
2022-12-16T10:36:28.986Z,23.00
2022-12-16T10:39:19.714Z,19.57
2022-12-16T10:42:10.818Z,20.40
2022-12-16T10:45:05.378Z,19.60
2022-12-16T10:47:52.551Z,21.93
2022-12-16T10:50:39.509Z,21.80
2022-12-16T10:53:32.956Z,20.83
2022-12-16T10:56:25.973Z,20.23
2022-12-16T10:59:14.915Z,15.03
2022-12-16T11:02:00.826Z,19.77
2022-12-16T11:07:45.138Z,15.50
2022-12-16T11:10:44.434Z,17.13
2022-12-16T11:13:42.398Z,25.27
2022-12-16T11:16:35.023Z,17.40
2022-12-16T11:19:21.566Z,22.83
2022-12-16T11:22:09.065Z,18.80
2022-12-16T11:24:54.894Z,19.63
2022-12-16T11:27:43.198Z,15.93
2022-12-16T11:30:38.716Z,17.37
2022-12-16T11:33:33.417Z,20.67
2022-12-16T11:36:28.506Z,15.00
2022-12-16T11:39:16.193Z,12.97
2022-12-16T11:42:05.519Z,9.47
2022-12-16T11:44:55.822Z,17.63
2022-12-16T11:47:54.404Z,12.03
2022-12-16T11:50:38.534Z,10.33
2022-12-16T11:53:41.988Z,9.13
2022-12-16T11:56:33.711Z,8.97
2022-12-16T11:59:24.518Z,7.50
2022-12-16T12:02:15.875Z,7.40
2022-12-16T12:04:44.462Z,7.20
2022-12-16T12:07:45.383Z,6.40
2022-12-16T12:11:02.648Z,5.50
2022-12-16T12:14:08.714Z,4.33
2022-12-16T12:17:06.853Z,3.27
2022-12-16T12:20:01.381Z,5.77
2022-12-16T12:22:53.693Z,3.23
2022-12-16T12:25:48.710Z,6.63
2022-12-16T12:28:46.765Z,6.97
2022-12-16T12:31:46.134Z,3.87
2022-12-16T12:34:40.678Z,2.10
2022-12-16T12:37:41.395Z,3.03
2022-12-16T12:40:40.774Z,2.17
2022-12-16T12:43:42.416Z,4.43
2022-12-16T12:46:39.340Z,1.00
2022-12-16T12:49:35.137Z,4.00
2022-12-16T12:52:33.841Z,2.37
2022-12-16T12:55:28.583Z,1.83
2022-12-16T12:58:16.861Z,2.87
2022-12-16T13:01:07.471Z,1.00
2022-12-16T13:04:01.190Z,3.60
2022-12-16T13:06:47.436Z,1.63
2022-12-16T13:09:46.354Z,0.97
2022-12-16T13:12:47.163Z,3.07
2022-12-16T13:15:52.465Z,4.40
2022-12-16T13:18:44.239Z,4.73
2022-12-16T13:22:03.326Z,0.47
2022-12-16T13:24:56.971Z,0.67
2022-12-16T13:27:44.229Z,4.80
2022-12-16T13:30:43.969Z,4.27
2022-12-16T13:33:43.420Z,1.87
2022-12-16T13:36:31.259Z,2.27
2022-12-16T13:39:36.735Z,0.40
2022-12-16T13:42:37.497Z,1.57
2022-12-16T13:45:36.320Z,3.33
2022-12-16T13:48:24.248Z,3.37
2022-12-16T13:51:18.636Z,3.23
2022-12-16T13:54:10.219Z,3.03
2022-12-16T13:57:02.399Z,5.47
2022-12-16T13:59:50.563Z,4.00
2022-12-16T14:02:44.158Z,2.80
2022-12-16T14:05:39.980Z,4.20
2022-12-16T14:08:32.310Z,4.87
2022-12-16T14:11:21.116Z,3.70
2022-12-16T14:14:15.265Z,5.47
2022-12-16T14:17:10.061Z,4.20
2022-12-16T14:20:12.403Z,5.43
2022-12-16T14:23:10.860Z,3.90
2022-12-16T14:26:01.127Z,4.10
2022-12-16T14:28:50.032Z,2.57
2022-12-16T14:31:40.995Z,2.83
2022-12-16T14:34:39.484Z,3.07
2022-12-16T14:37:31.505Z,2.27
2022-12-16T14:40:17.118Z,2.60
2022-12-16T14:43:04.571Z,3.37
2022-12-16T14:45:54.855Z,1.63
2022-12-16T14:48:51.355Z,2.17
2022-12-16T14:51:43.712Z,5.70
2022-12-16T14:54:37.687Z,6.20
2022-12-16T14:57:24.051Z,6.10
2022-12-16T15:00:28.876Z,4.83
2022-12-16T15:03:18.647Z,1.73
2022-12-16T15:06:06.644Z,3.70
2022-12-16T15:08:56.536Z,3.77
2022-12-16T15:11:43.649Z,8.67
2022-12-16T15:14:35.493Z,6.27
2022-12-16T15:17:22.084Z,9.43
2022-12-16T15:20:10.892Z,8.13
2022-12-16T15:23:09.224Z,9.87
2022-12-16T15:25:58.055Z,6.17
2022-12-16T15:28:57.719Z,6.23
2022-12-16T15:31:46.152Z,4.87
2022-12-16T15:34:47.955Z,4.80
2022-12-16T15:37:42.660Z,12.47
2022-12-16T15:40:45.466Z,11.63
2022-12-16T15:43:47.114Z,7.60
2022-12-16T15:46:41.351Z,11.90
2022-12-16T15:49:37.711Z,9.67
2022-12-16T15:52:41.401Z,10.43
2022-12-16T15:55:45.928Z,6.13
2022-12-16T15:58:40.108Z,5.50
2022-12-16T16:01:27.486Z,10.40
2022-12-16T16:04:15.302Z,7.60
2022-12-16T16:07:05.989Z,11.17
2022-12-16T16:09:54.832Z,8.87
2022-12-16T16:12:43.485Z,9.60
2022-12-16T16:15:31.416Z,9.37
2022-12-16T16:18:19.925Z,9.50
2022-12-16T16:21:05.712Z,9.17
2022-12-16T16:23:51.265Z,10.37
2022-12-16T16:26:40.865Z,13.37
2022-12-16T16:29:28.596Z,14.77
2022-12-16T16:32:14.710Z,13.40
2022-12-16T16:35:00.673Z,16.77
2022-12-16T16:37:46.165Z,15.47
2022-12-16T16:40:37.956Z,15.97
2022-12-16T16:43:23.792Z,18.33
2022-12-16T16:46:14.491Z,21.87
2022-12-16T16:49:00.628Z,20.80
2022-12-16T16:51:47.216Z,23.73
2022-12-16T16:54:32.780Z,32.83
2022-12-16T16:57:20.076Z,25.77
2022-12-16T17:00:05.868Z,26.40
2022-12-16T17:02:53.243Z,23.23
2022-12-16T17:05:38.751Z,23.73
2022-12-16T17:08:25.075Z,25.20
2022-12-16T17:11:11.011Z,23.13
2022-12-16T17:13:56.596Z,24.77
2022-12-16T17:16:42.169Z,25.93
2022-12-16T17:19:29.416Z,22.07
2022-12-16T17:22:20.255Z,28.87
2022-12-16T17:25:05.988Z,26.03
2022-12-16T17:27:51.925Z,25.30
2022-12-16T17:30:44.910Z,32.80
2022-12-16T17:33:33.978Z,31.33
2022-12-16T17:36:21.404Z,36.13
2022-12-16T17:39:07.149Z,36.80
2022-12-16T17:41:53.204Z,43.07
2022-12-16T17:44:39.124Z,47.40
2022-12-16T17:47:24.941Z,50.57
2022-12-16T17:50:10.337Z,56.20
2022-12-16T17:52:57.702Z,61.90
2022-12-16T17:55:49.445Z,66.90
2022-12-16T17:58:35.103Z,72.83
2022-12-16T18:01:21.653Z,93.90
2022-12-16T18:04:08.035Z,96.63
2022-12-16T18:07:08.755Z,99.07
2022-12-16T18:09:56.112Z,97.70
2022-12-16T18:12:42.364Z,103.80
2022-12-16T18:15:28.931Z,82.47
2022-12-16T18:18:14.575Z,78.50
2022-12-16T18:21:00.535Z,71.37
2022-12-16T18:23:48.121Z,71.30
2022-12-16T18:26:36.050Z,63.17
2022-12-16T18:29:21.620Z,63.33
2022-12-16T18:32:08.202Z,49.20
2022-12-16T18:34:54.184Z,54.50
2022-12-16T18:37:40.113Z,43.13
2022-12-16T18:40:27.948Z,43.70
2022-12-16T18:43:15.404Z,58.23
2022-12-16T18:46:00.288Z,63.00
2022-12-16T18:48:45.807Z,67.07
2022-12-16T18:51:31.664Z,50.77
2022-12-16T18:54:13.909Z,52.07
2022-12-16T18:56:59.422Z,59.47
2022-12-16T19:00:01.096Z,49.37
2022-12-16T19:02:46.916Z,53.23
2022-12-16T19:05:32.769Z,51.83
2022-12-16T19:08:18.395Z,54.33
2022-12-16T19:11:04.322Z,53.47
2022-12-16T19:13:49.886Z,52.57
2022-12-16T19:16:37.074Z,53.17
2022-12-16T19:19:22.935Z,53.67
2022-12-16T19:22:08.742Z,50.10
2022-12-16T19:24:54.954Z,64.57
2022-12-16T19:27:42.552Z,68.70
2022-12-16T19:30:29.233Z,67.57
2022-12-16T19:33:16.070Z,57.13
2022-12-16T19:36:01.728Z,63.53
2022-12-16T19:39:02.627Z,79.60
2022-12-16T19:41:48.326Z,85.70
2022-12-16T19:44:36.461Z,78.07
2022-12-16T19:47:22.675Z,79.07
2022-12-16T19:50:09.993Z,86.17
2022-12-16T19:52:52.158Z,98.87
2022-12-16T19:55:41.966Z,76.13
2022-12-16T19:58:27.767Z,83.83
2022-12-16T20:01:13.529Z,89.43
2022-12-16T20:03:59.186Z,84.43
2022-12-16T20:06:46.437Z,76.27
2022-12-16T20:09:32.010Z,87.43
2022-12-16T20:12:17.798Z,90.37
2022-12-16T20:15:03.440Z,90.53
2022-12-16T20:17:48.977Z,72.37
2022-12-16T20:20:35.148Z,81.63
2022-12-16T20:23:22.879Z,79.57
2022-12-16T20:26:13.086Z,77.27
2022-12-16T20:28:59.130Z,73.87
2022-12-16T20:31:45.386Z,71.37
2022-12-16T20:34:31.545Z,71.57
2022-12-16T20:37:18.290Z,69.50
2022-12-16T20:40:05.601Z,65.13
2022-12-16T20:42:51.700Z,71.33
2022-12-16T20:45:39.719Z,78.97
2022-12-16T20:48:25.940Z,73.67
2022-12-16T20:51:19.728Z,77.30
2022-12-16T20:54:09.958Z,75.30
2022-12-16T20:56:57.253Z,74.00
2022-12-16T20:59:43.258Z,87.27
2022-12-16T21:02:33.615Z,90.13
2022-12-16T21:05:20.611Z,90.03
2022-12-16T21:08:06.432Z,82.53
2022-12-16T21:10:52.169Z,90.80
2022-12-16T21:13:39.470Z,88.93
2022-12-16T21:16:26.272Z,86.67
2022-12-16T21:19:11.819Z,97.07
2022-12-16T21:21:57.589Z,102.87
2022-12-16T21:24:43.692Z,99.77
2022-12-16T21:27:29.554Z,90.00
2022-12-16T21:30:16.748Z,96.13
2022-12-16T21:33:02.325Z,104.17
2022-12-16T21:35:48.629Z,93.37
2022-12-16T21:38:34.457Z,92.13
2022-12-16T21:41:19.936Z,95.67
2022-12-16T21:44:05.636Z,99.10
2022-12-16T21:47:04.028Z,96.07
2022-12-16T21:49:49.644Z,105.00
2022-12-16T21:52:35.567Z,108.57
2022-12-16T21:55:21.227Z,120.00
2022-12-16T21:58:06.881Z,113.87
2022-12-16T22:00:58.897Z,130.93
2022-12-16T22:03:52.354Z,130.60
2022-12-16T22:06:41.287Z,131.63
2022-12-16T22:09:30.084Z,126.03
2022-12-16T22:12:15.814Z,125.93
2022-12-16T22:15:01.464Z,142.37
2022-12-16T22:17:48.245Z,131.67
2022-12-16T22:20:37.806Z,135.63
2022-12-16T22:23:28.195Z,122.60
2022-12-16T22:26:19.110Z,118.20
2022-12-16T22:29:05.088Z,127.57
2022-12-16T22:31:50.674Z,127.57
2022-12-16T22:34:36.298Z,129.90
2022-12-16T22:37:23.653Z,126.47
2022-12-16T22:40:14.461Z,125.90
2022-12-16T22:43:02.934Z,143.90
2022-12-16T22:45:48.871Z,137.10
2022-12-16T22:48:33.888Z,130.93
2022-12-16T22:51:19.630Z,138.47
2022-12-16T22:54:08.350Z,154.20
2022-12-16T23:00:00.172Z,130.60
2022-12-16T23:02:45.748Z,137.77
2022-12-16T23:05:31.603Z,142.97
2022-12-16T23:08:17.231Z,148.53
2022-12-16T23:11:12.678Z,139.10
2022-12-16T23:13:58.637Z,144.40
2022-12-16T23:16:44.806Z,161.67
2022-12-16T23:19:30.713Z,145.10
2022-12-16T23:22:17.022Z,144.10
2022-12-16T23:25:03.570Z,150.60
2022-12-16T23:27:50.625Z,149.27
2022-12-16T23:30:36.205Z,137.03
2022-12-16T23:33:22.150Z,145.47
2022-12-16T23:36:08.023Z,135.07
2022-12-16T23:38:53.912Z,139.80
2022-12-16T23:41:41.742Z,120.60
2022-12-16T23:44:28.818Z,126.77
2022-12-16T23:47:14.462Z,134.90
2022-12-16T23:50:00.570Z,127.57
2022-12-16T23:52:45.656Z,128.10
2022-12-16T23:55:31.121Z,123.27
2022-12-16T23:58:18.058Z,125.07
